MHLM/SAP METAR and TAF weather

Enter ICAO airport designator
Station Type Date Time Source
MHLM METAR 2019/04/18 22:00 UTC NOAA

MHLM 182200Z 02015KT 9999 FEW028 34/24 Q1004 A2965 NOSIG


Station Type Date Time Source
MHLM Decoded METAR 2019/04/18 22:00 UTC NOAA

La Mesa San Pedro Sula , Honduras (MHLM) 15-27N 087-56W 31M
Apr 18, 2019 - 06:00 PM EDT / 2019.04.18 2200 UTC
Wind: from the NNE (020 degrees) at 17 MPH (15 KT):0
Visibility: greater than 7 mile(s):0
Sky conditions: mostly clear
Temperature: 93 F (34 C)
Heat index: 104.5 F (40.3 C):1
Dew Point: 75 F (24 C)
Relative Humidity: 56%
Pressure (altimeter): 29.65 in. Hg (1004 hPa)
ob: MHLM 182200Z 02015KT 9999 FEW028 34/24 Q1004 A2965 NOSIG
cycle: 22

Station Type Date Time Source
MHLM TAF 2019/04/18 18:45 UTC NOAA

TAF TAF MHLM 181620Z 1818/1918 02014KT 9999 FEW034TCU TX39/1821Z TN23/1912Z
BECMG 1901/1903 35004KT FEW025 SCT080
BECMG 1912/1914 20004KT

Example: see airport list